Time;durP1;ratioP1;P1;durP2;ratioP2;P2;SDS_P1;SDS_P2;PMS_P1;PMS_P2;Temp;Humidity;BMP_temperature;BMP_pressure;BME280_temperature;BME280_humidity;BME280_pressure;Samples;Min_cycle;Max_cycle;Signal;HPM_P1;HPM_P2
2022/12/13 00:01:28;;;;;;;24.38;16.02;;;2.00;96.20;;;;;;5033653;28;20204;-62
2022/12/13 00:03:56;;;;;;;29.15;16.83;;;2.00;96.30;;;;;;5033234;28;20280;-62
2022/12/13 00:06:22;;;;;;;25.50;16.92;;;2.10;97.00;;;;;;5032600;28;20194;-62
2022/12/13 00:08:48;;;;;;;24.90;16.67;;;2.00;96.50;;;;;;5033243;28;20531;-62
2022/12/13 00:11:14;;;;;;;24.60;16.10;;;2.10;96.60;;;;;;5033199;28;20188;-62
2022/12/13 00:13:41;;;;;;;24.02;17.17;;;2.00;96.20;;;;;;5032168;28;21016;-62
2022/12/13 00:16:11;;;;;;;22.08;15.23;;;2.00;96.20;;;;;;5032021;28;20297;-62
2022/12/13 00:18:37;;;;;;;25.25;15.95;;;2.00;96.20;;;;;;5031713;28;20277;-62
2022/12/13 00:21:12;;;;;;;20.70;15.13;;;1.90;96.00;;;;;;5032703;28;20395;-62
2022/12/13 00:23:38;;;;;;;23.83;15.50;;;1.90;96.10;;;;;;5032414;28;20389;-62
2022/12/13 00:26:06;;;;;;;24.33;16.97;;;1.90;96.10;;;;;;5032492;28;20760;-62
2022/12/13 00:28:32;;;;;;;20.65;15.45;;;1.90;95.90;;;;;;5033188;28;20307;-62
2022/12/13 00:30:59;;;;;;;27.63;16.40;;;1.90;96.40;;;;;;5032026;28;20188;-62
2022/12/13 00:33:25;;;;;;;27.73;16.17;;;1.90;96.00;;;;;;5032069;28;20661;-62
2022/12/13 00:35:51;;;;;;;26.50;16.03;;;1.80;95.80;;;;;;5033308;28;20186;-62
2022/12/13 00:38:17;;;;;;;23.43;15.33;;;1.80;95.60;;;;;;5030669;28;20956;-62
2022/12/13 00:40:42;;;;;;;23.60;15.67;;;1.80;95.70;;;;;;5032726;28;20438;-62
2022/12/13 00:43:08;;;;;;;25.97;16.53;;;1.70;95.70;;;;;;5033460;28;20234;-62
2022/12/13 00:45:37;;;;;;;26.17;14.80;;;1.70;95.70;;;;;;5031925;28;20199;-62
2022/12/13 00:48:04;;;;;;;21.77;14.82;;;1.70;96.10;;;;;;5031850;28;20192;-62
2022/12/13 00:50:30;;;;;;;23.17;15.48;;;1.70;96.10;;;;;;5032090;28;20188;-62
2022/12/13 00:52:55;;;;;;;24.30;13.83;;;1.70;95.70;;;;;;5032355;28;20241;-62
2022/12/13 00:55:21;;;;;;;21.57;14.90;;;1.70;95.60;;;;;;5031652;28;20466;-62
2022/12/13 00:57:47;;;;;;;27.63;16.03;;;1.70;95.70;;;;;;5033145;28;20186;-62
2022/12/13 01:00:12;;;;;;;25.80;16.90;;;1.70;95.90;;;;;;5032431;28;20190;-62
2022/12/13 01:02:40;;;;;;;24.73;15.30;;;1.70;96.00;;;;;;5031593;28;20186;-62
2022/12/13 01:05:06;;;;;;;23.65;14.55;;;1.70;95.80;;;;;;5032274;28;20433;-62
2022/12/13 01:07:32;;;;;;;23.73;15.15;;;1.60;95.60;;;;;;5030844;28;20217;-62
2022/12/13 01:09:58;;;;;;;27.10;16.67;;;1.70;96.30;;;;;;5032034;28;20217;-62
2022/12/13 01:12:23;;;;;;;23.57;15.97;;;1.60;96.50;;;;;;5031702;28;20221;-62
2022/12/13 01:14:49;;;;;;;22.53;15.73;;;1.70;97.10;;;;;;5031993;28;20215;-62
2022/12/13 01:17:15;;;;;;;25.67;16.80;;;1.70;97.20;;;;;;5032186;28;20179;-62
2022/12/13 01:19:41;;;;;;;22.20;14.90;;;1.80;97.00;;;;;;5031383;28;20181;-63
2022/12/13 01:22:06;;;;;;;24.07;16.43;;;1.80;97.00;;;;;;5032771;28;20974;-62
2022/12/13 01:24:32;;;;;;;23.30;15.70;;;1.70;96.50;;;;;;5029990;28;20735;-62
2022/12/13 01:27:01;;;;;;;22.42;15.80;;;1.70;96.00;;;;;;5030660;28;20946;-62
2022/12/13 01:29:26;;;;;;;21.48;14.40;;;1.70;95.80;;;;;;5031348;28;20179;-62
2022/12/13 01:31:53;;;;;;;22.10;15.57;;;1.70;95.80;;;;;;5031749;28;20185;-62
2022/12/13 01:34:21;;;;;;;22.55;15.50;;;1.60;95.50;;;;;;5031120;28;20220;-62
2022/12/13 01:36:47;;;;;;;26.25;17.02;;;1.60;95.70;;;;;;5031640;28;20180;-62
2022/12/13 01:39:16;;;;;;;22.65;15.38;;;1.60;96.10;;;;;;5032553;28;20191;-62
2022/12/13 01:41:45;;;;;;;24.30;15.80;;;1.60;96.30;;;;;;5031935;28;20175;-62
2022/12/13 01:44:48;;;;;;;24.65;16.35;;;1.60;96.10;;;;;;5032500;28;20180;-62
2022/12/13 01:47:17;;;;;;;26.63;15.85;;;1.60;96.00;;;;;;5032539;28;20265;-62
2022/12/13 01:49:43;;;;;;;27.70;15.57;;;1.50;95.70;;;;;;5031587;28;20206;-62
2022/12/13 01:52:12;;;;;;;21.33;14.87;;;1.50;95.60;;;;;;5031077;28;20179;-62
2022/12/13 01:54:43;;;;;;;23.70;16.15;;;1.50;95.80;;;;;;5029569;28;20489;-62
2022/12/13 01:57:11;;;;;;;25.75;15.85;;;1.50;95.80;;;;;;5030830;28;20187;-62
2022/12/13 01:59:40;;;;;;;26.40;15.95;;;1.50;95.80;;;;;;5031231;28;20215;-62
2022/12/13 02:02:08;;;;;;;22.83;14.73;;;1.50;95.30;;;;;;5030945;28;20210;-63
2022/12/13 02:04:53;;;;;;;25.88;17.13;;;1.50;95.00;;;;;;5012043;28;20251;-62
2022/12/13 02:07:25;;;;;;;25.25;14.65;;;1.40;95.00;;;;;;5025643;28;20190;-69
2022/12/13 02:09:55;;;;;;;26.75;16.15;;;1.40;95.20;;;;;;5030522;28;20187;-62
2022/12/13 02:12:21;;;;;;;23.15;14.93;;;1.50;95.30;;;;;;5030788;28;20232;-62
2022/12/13 02:14:46;;;;;;;22.17;14.23;;;1.40;95.20;;;;;;5031332;28;20222;-62
2022/12/13 02:17:25;;;;;;;24.03;14.90;;;1.30;95.50;;;;;;5031332;28;20563;-62
2022/12/13 02:20:12;;;;;;;23.45;15.75;;;1.30;96.00;;;;;;5031517;28;20183;-62
2022/12/13 02:22:37;;;;;;;23.08;15.23;;;1.30;96.30;;;;;;5011919;28;20237;-62
2022/12/13 02:25:12;;;;;;;23.03;14.80;;;1.30;95.80;;;;;;5026122;28;20730;-62
2022/12/13 02:28:00;;;;;;;24.95;15.13;;;1.30;95.70;;;;;;5030618;28;20542;-62
2022/12/13 02:30:39;;;;;;;21.63;13.82;;;1.30;95.30;;;;;;5030890;28;20666;-62
2022/12/13 02:33:17;;;;;;;22.13;14.52;;;1.20;95.40;;;;;;5012188;28;20164;-62
2022/12/13 02:36:29;;;;;;;23.50;13.85;;;1.20;95.20;;;;;;5021354;28;20198;-62
2022/12/13 02:38:57;;;;;;;22.13;14.07;;;1.20;95.10;;;;;;5021366;28;20646;-62
2022/12/13 02:41:33;;;;;;;21.10;14.30;;;1.20;95.10;;;;;;5030450;28;20182;-63
2022/12/13 02:44:08;;;;;;;22.38;15.38;;;1.20;95.00;;;;;;5018866;28;20516;-62
2022/12/13 02:46:39;;;;;;;22.10;14.43;;;1.10;95.00;;;;;;5029793;28;20563;-62
2022/12/13 02:49:07;;;;;;;26.23;15.15;;;1.10;95.00;;;;;;5033774;28;20197;-62
2022/12/13 02:51:35;;;;;;;22.98;13.48;;;1.10;95.10;;;;;;5034646;28;20186;-62
2022/12/13 02:54:01;;;;;;;23.83;15.05;;;1.10;95.40;;;;;;5034343;28;20210;-62
2022/12/13 02:56:27;;;;;;;23.80;14.63;;;1.10;95.50;;;;;;5033946;28;20187;-62
2022/12/13 02:58:54;;;;;;;23.83;14.90;;;1.10;95.60;;;;;;5035165;28;20413;-62
2022/12/13 03:01:20;;;;;;;22.52;14.65;;;1.10;95.60;;;;;;5034406;28;20185;-62
2022/12/13 03:03:58;;;;;;;22.10;14.53;;;1.10;95.80;;;;;;5033883;28;20175;-62
2022/12/13 03:06:57;;;;;;;24.27;14.00;;;1.10;96.00;;;;;;5034137;28;20182;-62
2022/12/13 03:09:32;;;;;;;23.15;13.50;;;1.20;95.80;;;;;;5032721;28;20182;-63
2022/12/13 03:15:20;;;;;;;21.00;14.50;;;1.10;95.40;;;;;;5034199;28;20272;-62
2022/12/13 03:17:59;;;;;;;20.20;13.52;;;1.10;95.10;;;;;;5033657;28;20221;-62
2022/12/13 03:20:27;;;;;;;23.05;14.75;;;1.10;94.90;;;;;;5033466;28;20258;-62
2022/12/13 03:22:54;;;;;;;25.15;15.25;;;1.10;94.90;;;;;;5015341;28;20231;-62
2022/12/13 03:25:21;;;;;;;23.80;14.43;;;1.10;95.20;;;;;;5024518;28;20221;-62
2022/12/13 03:27:47;;;;;;;21.17;13.85;;;1.10;95.60;;;;;;5033376;28;20236;-62
2022/12/13 03:30:13;;;;;;;21.80;13.23;;;1.10;95.80;;;;;;5034393;28;20218;-62
2022/12/13 03:32:38;;;;;;;21.43;14.70;;;1.10;96.10;;;;;;5033357;28;20430;-62
2022/12/13 03:35:05;;;;;;;23.03;14.70;;;1.10;95.90;;;;;;5033746;28;20269;-62
2022/12/13 03:37:32;;;;;;;24.38;14.45;;;1.00;95.90;;;;;;5032126;28;20540;-62
2022/12/13 03:39:58;;;;;;;21.95;14.23;;;1.00;95.90;;;;;;5033781;28;20187;-62
2022/12/13 03:42:24;;;;;;;22.52;15.00;;;1.00;95.70;;;;;;5033457;28;20201;-69
2022/12/13 03:44:50;;;;;;;21.45;14.70;;;1.00;95.60;;;;;;5034484;28;20265;-62
2022/12/13 03:47:16;;;;;;;22.03;14.10;;;1.00;95.40;;;;;;5033704;28;20589;-62
2022/12/13 03:49:42;;;;;;;20.95;13.90;;;1.00;95.30;;;;;;5032938;28;20193;-62
2022/12/13 03:52:07;;;;;;;23.40;13.70;;;1.00;95.00;;;;;;5034037;28;20269;-62
2022/12/13 03:54:33;;;;;;;23.67;13.90;;;1.00;95.10;;;;;;5032489;28;20515;-62
2022/12/13 03:56:59;;;;;;;19.10;13.07;;;1.00;95.10;;;;;;5033637;28;20179;-62
2022/12/13 03:59:25;;;;;;;22.00;13.17;;;1.10;95.00;;;;;;5031797;28;20183;-69
2022/12/13 04:01:51;;;;;;;22.88;14.35;;;1.00;94.90;;;;;;5031796;28;20212;-62
2022/12/13 04:04:16;;;;;;;19.87;14.47;;;1.00;95.20;;;;;;5033137;28;20209;-62
2022/12/13 04:06:42;;;;;;;29.27;14.77;;;0.90;95.10;;;;;;5031401;28;20187;-62
2022/12/13 04:09:08;;;;;;;23.13;13.80;;;0.90;94.70;;;;;;5034115;28;20619;-62
2022/12/13 04:14:17;;;;;;;18.08;13.05;;;0.90;94.60;;;;;;5033093;28;20746;-62
2022/12/13 04:16:43;;;;;;;20.20;12.80;;;0.90;94.90;;;;;;5033407;28;20253;-62
2022/12/13 04:19:09;;;;;;;21.83;14.60;;;0.90;95.20;;;;;;5015450;28;20183;-62
2022/12/13 04:21:35;;;;;;;24.60;14.70;;;1.00;94.70;;;;;;5032531;28;20436;-62
2022/12/13 04:24:00;;;;;;;18.87;13.47;;;0.90;94.20;;;;;;5034005;28;20728;-62
2022/12/13 04:26:26;;;;;;;21.13;12.90;;;0.90;94.10;;;;;;5031369;28;20197;-62
2022/12/13 04:28:52;;;;;;;20.13;12.27;;;0.80;94.00;;;;;;5032785;28;20218;-62
2022/12/13 04:31:18;;;;;;;21.30;14.37;;;0.80;93.80;;;;;;5033798;28;20418;-62
2022/12/13 04:33:43;;;;;;;20.27;13.40;;;0.80;93.80;;;;;;5032044;28;20202;-62
2022/12/13 04:36:09;;;;;;;18.17;13.03;;;0.80;94.00;;;;;;5032528;28;20182;-66
2022/12/13 04:38:35;;;;;;;20.70;16.17;;;0.80;93.70;;;;;;5032854;28;20260;-62
2022/12/13 04:41:12;;;;;;;19.50;12.73;;;0.70;93.40;;;;;;5032545;28;20171;-62
2022/12/13 04:43:37;;;;;;;22.75;13.65;;;0.70;93.40;;;;;;5031248;28;20233;-62
2022/12/13 04:46:03;;;;;;;20.07;13.20;;;0.70;93.40;;;;;;5032120;28;20178;-63
2022/12/13 04:48:31;;;;;;;19.60;15.13;;;0.70;93.60;;;;;;5032799;28;20176;-63
2022/12/13 04:50:57;;;;;;;23.02;15.70;;;0.70;93.60;;;;;;5032427;28;20638;-62
2022/12/13 04:53:23;;;;;;;22.83;13.35;;;0.70;93.80;;;;;;5031572;28;20210;-67
2022/12/13 04:55:49;;;;;;;22.93;14.43;;;0.60;93.80;;;;;;5032255;28;20190;-62
2022/12/13 04:58:15;;;;;;;23.60;15.97;;;0.60;94.00;;;;;;5032163;28;20513;-61
2022/12/13 05:00:40;;;;;;;23.90;13.87;;;0.70;94.20;;;;;;5031736;28;20224;-62
2022/12/13 05:03:06;;;;;;;22.30;14.23;;;0.70;94.50;;;;;;5032131;28;20189;-62
2022/12/13 05:05:32;;;;;;;18.80;13.37;;;0.70;94.40;;;;;;5031378;28;20175;-62
2022/12/13 05:07:57;;;;;;;24.23;13.30;;;0.60;94.10;;;;;;5031900;28;20186;-62
2022/12/13 05:10:23;;;;;;;19.13;13.33;;;0.60;93.80;;;;;;5031923;28;20186;-61
2022/12/13 05:12:49;;;;;;;21.83;16.07;;;0.60;93.80;;;;;;5031094;28;20542;-62
2022/12/13 05:15:14;;;;;;;18.07;14.00;;;0.60;94.00;;;;;;5031283;28;20261;-61
2022/12/13 05:17:40;;;;;;;23.23;16.90;;;0.60;94.00;;;;;;5029245;28;20187;-61
2022/12/13 05:20:06;;;;;;;20.40;13.40;;;0.60;94.00;;;;;;5032668;28;20261;-61
2022/12/13 05:22:32;;;;;;;17.83;13.75;;;0.60;93.80;;;;;;5028635;28;20336;-62
2022/12/13 05:24:58;;;;;;;23.20;12.97;;;0.60;93.80;;;;;;5031343;28;20234;-62
2022/12/13 05:27:23;;;;;;;22.60;15.47;;;0.30;93.50;;;;;;5036157;28;20227;-61
2022/12/13 05:29:49;;;;;;;23.57;15.30;;;0.60;93.60;;;;;;5035207;28;20177;-62
2022/12/13 05:32:14;;;;;;;16.83;12.50;;;0.50;93.70;;;;;;5031026;28;20190;-63
2022/12/13 05:34:40;;;;;;;21.60;13.20;;;0.50;93.60;;;;;;5030090;28;20205;-62
2022/12/13 05:37:06;;;;;;;21.40;14.55;;;0.50;93.40;;;;;;5029689;28;20193;-61
2022/12/13 05:39:32;;;;;;;23.57;13.73;;;0.50;93.60;;;;;;5031390;28;20542;-68
2022/12/13 05:41:58;;;;;;;21.43;14.10;;;0.40;94.10;;;;;;5029058;28;20261;-61
2022/12/13 05:44:24;;;;;;;18.02;12.35;;;0.50;94.70;;;;;;5029693;28;20186;-62
2022/12/13 05:46:50;;;;;;;20.43;13.07;;;0.50;94.90;;;;;;5029432;28;20202;-62
2022/12/13 05:49:15;;;;;;;22.13;12.60;;;0.50;94.90;;;;;;5031263;28;20218;-62
2022/12/13 05:51:42;;;;;;;21.47;13.80;;;0.50;94.70;;;;;;5027254;28;20187;-62
2022/12/13 05:54:07;;;;;;;17.98;13.32;;;0.50;94.50;;;;;;5025888;28;20252;-62
2022/12/13 05:56:33;;;;;;;19.60;13.47;;;0.50;94.70;;;;;;5029711;28;20206;-68
2022/12/13 05:58:59;;;;;;;18.60;14.40;;;0.50;94.90;;;;;;5031345;28;20181;-61
2022/12/13 06:01:25;;;;;;;20.43;13.60;;;0.50;95.10;;;;;;5028721;28;20177;-62
2022/12/13 06:03:50;;;;;;;19.50;13.30;;;0.50;95.60;;;;;;5029792;28;20257;-61
2022/12/13 06:06:17;;;;;;;20.10;13.77;;;0.50;95.80;;;;;;5030046;28;20274;-62
2022/12/13 06:08:42;;;;;;;23.50;14.80;;;0.50;95.20;;;;;;5031198;28;20220;-61
2022/12/13 06:11:08;;;;;;;25.93;16.10;;;0.50;94.90;;;;;;5030947;28;20182;-61
2022/12/13 06:13:34;;;;;;;23.23;14.20;;;0.50;95.20;;;;;;5029471;28;20940;-68
2022/12/13 06:16:03;;;;;;;24.67;14.97;;;0.50;95.20;;;;;;5031892;28;20530;-62
2022/12/13 06:18:33;;;;;;;21.35;14.80;;;0.50;95.30;;;;;;5030921;28;20421;-62
2022/12/13 06:21:02;;;;;;;23.60;15.65;;;0.50;94.90;;;;;;5030296;28;20178;-62
2022/12/13 06:23:29;;;;;;;21.52;14.98;;;0.50;94.60;;;;;;5034242;28;20236;-62
2022/12/13 06:25:55;;;;;;;21.20;14.63;;;0.50;94.30;;;;;;5033715;28;20657;-61
2022/12/13 06:28:21;;;;;;;24.63;15.30;;;0.50;94.30;;;;;;5033309;28;20183;-62
2022/12/13 06:30:51;;;;;;;21.77;13.70;;;0.40;94.30;;;;;;5031067;28;20204;-62
2022/12/13 06:33:18;;;;;;;23.58;15.95;;;0.40;94.30;;;;;;5016369;28;20436;-62
2022/12/13 06:35:44;;;;;;;23.00;15.02;;;0.40;94.30;;;;;;5032847;28;20677;-62
2022/12/13 06:38:11;;;;;;;26.13;16.55;;;0.40;94.50;;;;;;5033673;28;20320;-62
2022/12/13 06:40:36;;;;;;;22.63;14.63;;;0.40;94.90;;;;;;5032961;28;20190;-62
2022/12/13 06:43:03;;;;;;;24.20;15.37;;;0.40;94.70;;;;;;5028797;28;20179;-62
2022/12/13 06:45:29;;;;;;;24.60;15.70;;;0.40;94.90;;;;;;5026277;28;20190;-61
2022/12/13 06:47:56;;;;;;;27.67;16.30;;;0.40;95.20;;;;;;5034368;28;20179;-61
2022/12/13 06:50:22;;;;;;;20.77;14.98;;;0.30;95.00;;;;;;5035171;28;20262;-62
2022/12/13 06:52:48;;;;;;;22.35;13.43;;;0.30;94.70;;;;;;5034779;28;20270;-62
2022/12/13 06:55:14;;;;;;;25.40;14.70;;;0.40;94.10;;;;;;5034021;28;20733;-62
2022/12/13 06:57:40;;;;;;;20.65;14.65;;;0.30;93.80;;;;;;5050832;28;20209;-67
2022/12/13 07:00:06;;;;;;;18.60;13.43;;;0.30;93.90;;;;;;5038708;28;20178;-61
2022/12/13 07:02:32;;;;;;;24.92;14.90;;;0.30;94.00;;;;;;5034756;28;20178;-61
2022/12/13 07:04:58;;;;;;;22.40;14.90;;;0.30;94.30;;;;;;5033739;28;20191;-61
2022/12/13 07:07:25;;;;;;;22.70;15.80;;;0.30;94.60;;;;;;5047221;28;20304;-61
2022/12/13 07:09:51;;;;;;;27.67;15.05;;;0.30;94.90;;;;;;5034963;28;20174;-63
2022/12/13 07:12:18;;;;;;;28.48;15.77;;;0.30;94.70;;;;;;5034147;28;20210;-62
2022/12/13 07:14:43;;;;;;;29.75;15.90;;;0.30;94.80;;;;;;5034538;28;20194;-62
2022/12/13 07:17:09;;;;;;;24.87;15.60;;;0.30;95.10;;;;;;5034433;28;20631;-63
2022/12/13 07:19:38;;;;;;;27.40;19.07;;;0.40;95.40;;;;;;5033927;28;20175;-62
2022/12/13 07:22:04;;;;;;;21.58;14.07;;;0.40;95.60;;;;;;5034524;28;20461;-62
2022/12/13 07:24:30;;;;;;;24.80;14.70;;;0.40;95.30;;;;;;5034113;28;20237;-62
2022/12/13 07:26:56;;;;;;;23.00;16.08;;;0.50;94.80;;;;;;5033469;28;20429;-62
2022/12/13 07:29:22;;;;;;;24.33;15.77;;;0.40;94.00;;;;;;5034991;28;20646;-62
2022/12/13 07:31:47;;;;;;;22.10;15.00;;;0.40;93.40;;;;;;5033661;28;20285;-62
2022/12/13 07:34:13;;;;;;;22.97;14.83;;;0.40;93.10;;;;;;5033674;28;20209;-62
2022/12/13 07:36:39;;;;;;;23.93;14.87;;;0.40;93.20;;;;;;5034159;28;20220;-63
2022/12/13 07:39:04;;;;;;;22.47;14.90;;;0.30;93.30;;;;;;5034065;28;20206;-62
2022/12/13 07:41:31;;;;;;;22.60;16.43;;;0.30;93.50;;;;;;5033748;28;20225;-62
2022/12/13 07:43:57;;;;;;;23.30;16.30;;;0.30;93.60;;;;;;5034403;28;20315;-62
2022/12/13 07:46:25;;;;;;;22.75;16.48;;;0.40;94.00;;;;;;5033312;28;20182;-63
2022/12/13 07:48:51;;;;;;;26.65;16.80;;;0.30;93.80;;;;;;5031909;28;20178;-63
2022/12/13 07:51:17;;;;;;;21.03;15.73;;;0.30;93.90;;;;;;5032195;28;20183;-65
2022/12/13 07:53:42;;;;;;;21.30;16.17;;;0.30;94.30;;;;;;5033652;28;20222;-63
2022/12/13 07:56:10;;;;;;;25.23;16.90;;;0.30;94.10;;;;;;5033355;28;20270;-64
2022/12/13 07:58:37;;;;;;;25.40;15.70;;;0.40;93.90;;;;;;5033333;28;20182;-63
2022/12/13 08:01:06;;;;;;;23.67;15.02;;;0.40;94.00;;;;;;5033628;28;20182;-63
2022/12/13 08:03:33;;;;;;;24.35;15.90;;;0.40;94.30;;;;;;5033391;28;20530;-63
2022/12/13 08:06:03;;;;;;;25.50;16.50;;;0.40;94.50;;;;;;5032761;28;20528;-63
2022/12/13 08:08:30;;;;;;;24.40;15.98;;;0.50;94.50;;;;;;5034796;28;20173;-64
2022/12/13 08:11:06;;;;;;;27.95;16.25;;;0.40;94.90;;;;;;5039478;28;20174;-64
2022/12/13 08:13:32;;;;;;;29.08;16.95;;;0.20;95.60;;;;;;5030436;28;20224;-62
2022/12/13 08:16:03;;;;;;;24.83;16.58;;;0.10;96.20;;;;;;5032538;28;20209;-63
2022/12/13 08:18:31;;;;;;;25.35;16.15;;;0.10;96.50;;;;;;5032848;28;20664;-62
2022/12/13 08:21:03;;;;;;;28.10;15.82;;;0.10;96.90;;;;;;5032587;28;20241;-62
2022/12/13 08:23:30;;;;;;;27.33;16.33;;;0.10;97.00;;;;;;5033089;28;20230;-62
2022/12/13 08:25:56;;;;;;;31.60;19.00;;;0.20;96.90;;;;;;5033270;28;20179;-62
2022/12/13 08:28:23;;;;;;;24.83;16.05;;;0.20;96.90;;;;;;5032503;28;20186;-62
2022/12/13 08:30:50;;;;;;;29.80;18.48;;;0.10;96.90;;;;;;5032310;28;20182;-62
2022/12/13 08:33:16;;;;;;;32.05;18.10;;;0.00;97.40;;;;;;5032756;28;20526;-62
2022/12/13 08:35:42;;;;;;;28.42;18.17;;;0.00;97.80;;;;;;5033055;28;20182;-65
2022/12/13 08:38:08;;;;;;;28.85;17.42;;;0.00;98.20;;;;;;5032740;28;20185;-62
2022/12/13 08:40:34;;;;;;;23.30;15.03;;;0.10;98.30;;;;;;5032483;28;20562;-62
2022/12/13 08:43:00;;;;;;;26.47;16.60;;;0.20;98.30;;;;;;5032119;28;20799;-62
2022/12/13 08:45:26;;;;;;;24.40;16.80;;;0.20;98.10;;;;;;5032810;28;20178;-62
2022/12/13 08:47:52;;;;;;;24.42;16.13;;;0.30;98.10;;;;;;5032921;28;20181;-63
2022/12/13 08:50:18;;;;;;;27.02;17.00;;;0.50;98.50;;;;;;5030673;28;20178;-63
2022/12/13 08:52:44;;;;;;;23.37;15.70;;;0.90;98.90;;;;;;5031413;28;20706;-63
2022/12/13 08:55:12;;;;;;;26.43;16.37;;;1.50;97.60;;;;;;5033093;28;20528;-63
2022/12/13 08:57:39;;;;;;;27.33;17.25;;;2.30;95.80;;;;;;5032964;28;20424;-63
2022/12/13 09:00:07;;;;;;;23.95;16.33;;;3.00;93.40;;;;;;5031931;28;20174;-63
2022/12/13 09:02:32;;;;;;;23.10;15.70;;;3.90;91.60;;;;;;5030541;28;20175;-62
2022/12/13 09:04:58;;;;;;;22.27;16.10;;;5.00;88.00;;;;;;5032459;28;20248;-62
2022/12/13 09:07:24;;;;;;;22.90;17.67;;;6.10;82.60;;;;;;5033113;28;20175;-64
2022/12/13 09:09:49;;;;;;;20.30;16.50;;;7.40;76.50;;;;;;5032459;28;20202;-62
2022/12/13 09:12:16;;;;;;;26.33;18.30;;;8.70;70.60;;;;;;5033319;28;20185;-63
2022/12/13 09:14:41;;;;;;;26.97;19.37;;;9.60;64.70;;;;;;5032944;28;20448;-62
2022/12/13 09:17:07;;;;;;;21.33;17.20;;;10.20;59.50;;;;;;5032155;28;20748;-63
2022/12/13 09:19:33;;;;;;;18.77;15.53;;;10.70;57.30;;;;;;5031967;28;20550;-63
2022/12/13 09:21:58;;;;;;;21.47;16.47;;;11.40;55.10;;;;;;5032087;28;20194;-62
2022/12/13 09:24:25;;;;;;;23.60;18.47;;;12.00;53.30;;;;;;5032956;28;20177;-63
2022/12/13 09:26:50;;;;;;;22.20;16.90;;;12.40;52.00;;;;;;5031919;28;20717;-62
2022/12/13 09:29:16;;;;;;;23.10;18.10;;;12.70;51.10;;;;;;5032558;28;20452;-63
2022/12/13 09:31:42;;;;;;;20.40;18.37;;;13.00;49.80;;;;;;5032768;28;20181;-63
2022/12/13 09:34:09;;;;;;;19.90;16.77;;;13.30;48.90;;;;;;5032094;28;20207;-63
2022/12/13 09:36:35;;;;;;;19.93;17.27;;;13.60;48.70;;;;;;5032711;28;20422;-62
2022/12/13 09:39:01;;;;;;;22.50;20.10;;;13.60;47.70;;;;;;5032385;28;20760;-63
2022/12/13 09:41:36;;;;;;;22.83;18.43;;;13.40;48.10;;;;;;5032725;28;20408;-63
2022/12/13 09:44:18;;;;;;;23.50;19.07;;;13.00;48.70;;;;;;5031989;28;20184;-63
2022/12/13 09:46:46;;;;;;;24.63;19.10;;;13.10;48.40;;;;;;5032504;28;20448;-62
2022/12/13 09:49:33;;;;;;;22.17;18.60;;;13.30;48.30;;;;;;5031381;28;20418;-63
2022/12/13 09:52:00;;;;;;;20.30;17.87;;;13.40;47.80;;;;;;5031062;28;20445;-63
2022/12/13 09:54:27;;;;;;;23.30;18.10;;;13.90;47.50;;;;;;5031564;28;20467;-63
2022/12/13 09:56:55;;;;;;;23.00;19.73;;;14.50;47.10;;;;;;5031075;28;20433;-64
2022/12/13 09:59:31;;;;;;;23.93;21.50;;;15.40;45.90;;;;;;5035823;28;20562;-63
2022/12/13 10:02:09;;;;;;;23.03;18.37;;;16.10;44.40;;;;;;5036050;28;20404;-63
2022/12/13 10:04:34;;;;;;;20.90;18.50;;;16.60;43.50;;;;;;5016918;28;20949;-63
2022/12/13 10:07:02;;;;;;;24.10;20.90;;;16.70;42.70;;;;;;5030917;28;20511;-63
2022/12/13 10:09:28;;;;;;;22.33;20.23;;;17.00;42.40;;;;;;5035482;28;20182;-63
2022/12/13 10:11:54;;;;;;;20.87;18.70;;;17.20;41.00;;;;;;5034959;28;20428;-63
2022/12/13 10:14:32;;;;;;;20.37;17.13;;;17.70;41.00;;;;;;5036435;28;20202;-63
2022/12/13 10:17:01;;;;;;;21.10;17.33;;;17.90;39.50;;;;;;5035126;28;20490;-63
2022/12/13 10:19:45;;;;;;;21.23;19.07;;;17.80;39.40;;;;;;5035471;28;20424;-63
2022/12/13 10:22:14;;;;;;;20.80;18.70;;;17.50;39.60;;;;;;5034212;28;20463;-63
2022/12/13 10:25:09;;;;;;;24.00;17.30;;;17.20;40.20;;;;;;5035233;28;20428;-63
2022/12/13 10:27:46;;;;;;;23.70;18.87;;;17.10;40.10;;;;;;5034388;28;20436;-63
2022/12/13 10:30:24;;;;;;;21.53;18.80;;;16.50;40.60;;;;;;5035734;28;20409;-63
2022/12/13 10:32:58;;;;;;;21.07;18.60;;;16.10;40.70;;;;;;5034473;28;20436;-63
2022/12/13 10:35:35;;;;;;;22.60;17.20;;;15.80;40.90;;;;;;5035001;28;21135;-63
2022/12/13 10:38:22;;;;;;;27.00;17.90;;;15.20;41.80;;;;;;5035307;28;20408;-63
2022/12/13 10:40:47;;;;;;;23.37;18.73;;;14.50;42.80;;;;;;5035778;28;20452;-63
2022/12/13 10:43:22;;;;;;;17.90;15.97;;;14.00;45.10;;;;;;5034699;28;20430;-63
2022/12/13 10:46:17;;;;;;;18.53;16.53;;;13.60;45.40;;;;;;5034777;28;20178;-63
2022/12/13 10:48:49;;;;;;;23.00;15.30;;;13.40;45.50;;;;;;5033551;28;20423;-63
2022/12/13 10:51:21;;;;;;;21.10;16.17;;;12.80;46.30;;;;;;5035559;28;20438;-63
2022/12/13 10:53:48;;;;;;;17.50;15.07;;;12.40;47.30;;;;;;5034303;28;20803;-63
2022/12/13 10:56:16;;;;;;;21.60;17.40;;;11.90;48.00;;;;;;5035062;28;20916;-63
2022/12/13 10:58:47;;;;;;;21.63;15.50;;;11.70;48.20;;;;;;5034278;28;20409;-63
2022/12/13 11:01:22;;;;;;;23.13;16.57;;;11.30;49.10;;;;;;5035054;28;20393;-63
2022/12/13 11:04:00;;;;;;;21.67;17.20;;;11.10;49.50;;;;;;5034468;28;20540;-63
2022/12/13 11:06:37;;;;;;;19.03;14.13;;;10.60;51.80;;;;;;5034669;28;20437;-63
2022/12/13 11:09:32;;;;;;;14.53;13.00;;;10.20;51.30;;;;;;5016215;28;20429;-63
2022/12/13 11:12:01;;;;;;;20.57;16.13;;;10.20;49.80;;;;;;5034811;28;20857;-63
2022/12/13 11:14:33;;;;;;;19.90;14.43;;;10.00;51.40;;;;;;5034234;28;20457;-63
2022/12/13 11:17:18;;;;;;;19.83;15.57;;;9.80;51.60;;;;;;5033835;28;20429;-63
2022/12/13 11:19:47;;;;;;;18.20;13.70;;;9.70;52.90;;;;;;5034262;28;20386;-63
2022/12/13 11:22:28;;;;;;;18.73;14.03;;;9.40;53.10;;;;;;5034384;28;20552;-63
2022/12/13 11:25:01;;;;;;;20.63;14.57;;;9.20;52.60;;;;;;5033550;28;20437;-63
2022/12/13 11:27:35;;;;;;;19.77;16.10;;;8.90;53.80;;;;;;5034475;28;20456;-63
2022/12/13 11:30:16;;;;;;;18.60;14.83;;;8.80;55.30;;;;;;5033150;28;20435;-63
2022/12/13 11:33:17;;;;;;;19.40;15.33;;;8.50;56.80;;;;;;5035038;28;20409;-63
2022/12/13 11:35:55;;;;;;;18.60;12.67;;;8.40;56.20;;;;;;5031701;28;20806;-64
2022/12/13 11:38:33;;;;;;;15.40;10.83;;;8.30;55.10;;;;;;5033640;28;20931;-63
2022/12/13 11:41:10;;;;;;;20.17;13.03;;;8.20;55.90;;;;;;5033312;28;20512;-64
2022/12/13 11:43:49;;;;;;;14.90;13.13;;;8.20;54.90;;;;;;5033783;28;20761;-63
2022/12/13 11:46:43;;;;;;;16.30;12.23;;;8.20;55.10;;;;;;5034054;28;20402;-63
2022/12/13 11:49:36;;;;;;;17.53;13.00;;;8.00;56.80;;;;;;5028743;28;20440;-63
2022/12/13 11:52:17;;;;;;;23.00;15.00;;;7.90;56.70;;;;;;5031869;28;20435;-63
2022/12/13 11:54:48;;;;;;;22.60;15.73;;;7.80;56.40;;;;;;5033561;28;20467;-63
2022/12/13 11:57:51;;;;;;;21.80;16.60;;;7.80;56.80;;;;;;5032598;28;20439;-63
2022/12/13 12:00:46;;;;;;;25.43;16.27;;;7.60;56.20;;;;;;5032714;28;20431;-63
2022/12/13 12:03:18;;;;;;;16.87;12.43;;;7.60;56.50;;;;;;5032614;28;20470;-63
2022/12/13 12:05:52;;;;;;;19.23;13.57;;;7.50;56.30;;;;;;5033329;28;20819;-63
2022/12/13 12:08:36;;;;;;;18.50;14.00;;;7.50;56.60;;;;;;5032595;28;20722;-63
2022/12/13 12:11:29;;;;;;;21.30;16.70;;;7.50;58.00;;;;;;5033078;28;20404;-63
2022/12/13 12:14:15;;;;;;;18.20;14.90;;;7.40;59.60;;;;;;5032480;28;20456;-70
2022/12/13 12:16:50;;;;;;;19.37;13.60;;;7.30;57.80;;;;;;5032142;28;20962;-63
2022/12/13 12:19:20;;;;;;;17.47;12.50;;;7.30;57.90;;;;;;5032478;28;20401;-63
2022/12/13 12:22:23;;;;;;;15.67;11.87;;;7.20;58.10;;;;;;5033223;28;20422;-64
2022/12/13 12:25:10;;;;;;;15.03;11.07;;;7.10;58.50;;;;;;5031858;28;20470;-63
2022/12/13 12:27:42;;;;;;;15.80;11.73;;;7.00;58.60;;;;;;5033006;28;20434;-63
2022/12/13 12:30:14;;;;;;;15.97;11.10;;;6.90;58.40;;;;;;5032258;28;20427;-63
2022/12/13 12:32:47;;;;;;;17.53;12.20;;;6.90;59.00;;;;;;5033684;28;20403;-67
2022/12/13 12:35:52;;;;;;;15.30;10.97;;;6.80;59.30;;;;;;5013024;28;20437;-63
2022/12/13 12:39:08;;;;;;;14.97;11.50;;;6.80;58.50;;;;;;5032284;28;20445;-63
2022/12/13 12:41:58;;;;;;;14.83;10.33;;;6.70;59.60;;;;;;5020545;28;20808;-63
2022/12/13 12:44:33;;;;;;;12.50;10.17;;;6.60;60.00;;;;;;5032831;28;20430;-63
2022/12/13 12:47:22;;;;;;;12.67;10.63;;;6.60;60.20;;;;;;5032027;28;20399;-64
2022/12/13 12:50:09;;;;;;;11.98;9.77;;;6.60;59.50;;;;;;5033548;28;20466;-63
2022/12/13 12:53:16;;;;;;;13.70;11.68;;;6.30;57.90;;;;;;5013787;28;20259;-63
2022/12/13 12:55:45;;;;;;;13.35;10.32;;;6.30;59.30;;;;;;4990026;28;20200;-63
2022/12/13 12:58:33;;;;;;;11.77;9.65;;;6.20;60.10;;;;;;5023635;28;20184;-63